createdAt,value
2022-08-05T00:02:19.671Z,10.88
2022-08-05T00:04:47.227Z,11.10
2022-08-05T00:07:58.873Z,11.15
2022-08-05T00:10:09.375Z,11.52
2022-08-05T00:12:56.093Z,12.90
2022-08-05T00:15:55.373Z,11.73
2022-08-05T00:18:21.724Z,10.60
2022-08-05T00:20:50.189Z,9.25
2022-08-05T00:23:17.204Z,10.60
2022-08-05T00:25:57.277Z,12.90
2022-08-05T00:28:29.782Z,12.10
2022-08-05T00:30:56.454Z,11.60
2022-08-05T00:34:53.220Z,11.32
2022-08-05T00:37:12.692Z,10.13
2022-08-05T00:39:02.658Z,9.98
2022-08-05T00:41:52.043Z,11.43
2022-08-05T00:44:20.876Z,11.50
2022-08-05T00:46:54.244Z,10.80
2022-08-05T00:49:32.382Z,10.48
2022-08-05T00:51:59.527Z,12.20
2022-08-05T00:54:30.120Z,11.93
2022-08-05T00:59:23.726Z,10.15
2022-08-05T01:01:50.828Z,11.25
2022-08-05T01:04:20.258Z,10.65
2022-08-05T01:06:53.924Z,11.23
2022-08-05T01:09:22.166Z,11.63
2022-08-05T01:11:52.468Z,11.68
2022-08-05T01:14:40.661Z,13.20
2022-08-05T01:17:12.102Z,14.93
2022-08-05T01:20:02.089Z,12.98
2022-08-05T01:22:58.558Z,11.68
2022-08-05T01:25:43.607Z,11.88
2022-08-05T01:28:25.048Z,9.95
2022-08-05T01:31:02.969Z,12.98
2022-08-05T01:33:36.128Z,9.52
2022-08-05T01:36:12.837Z,10.60
2022-08-05T01:38:40.579Z,9.82
2022-08-05T01:41:08.040Z,11.27
2022-08-05T01:43:35.684Z,14.13
2022-08-05T01:46:07.363Z,9.43
2022-08-05T01:48:51.628Z,8.82
2022-08-05T01:51:18.977Z,12.10
2022-08-05T01:53:57.214Z,11.57
2022-08-05T01:58:09.265Z,9.00
2022-08-05T01:59:18.430Z,8.65
2022-08-05T02:01:47.572Z,16.45
2022-08-05T02:04:18.340Z,8.73
2022-08-05T02:06:47.025Z,11.30
2022-08-05T02:09:16.459Z,9.02
2022-08-05T02:12:06.732Z,10.15
2022-08-05T02:14:47.923Z,10.02
2022-08-05T02:18:28.045Z,8.30
2022-08-05T02:20:22.352Z,7.75
2022-08-05T02:23:02.414Z,9.20
2022-08-05T02:25:49.385Z,10.55
2022-08-05T02:28:28.903Z,11.70
2022-08-05T02:31:01.027Z,10.45
2022-08-05T02:33:38.439Z,9.95
2022-08-05T02:36:10.210Z,8.68
2022-08-05T02:38:43.377Z,7.07
2022-08-05T02:41:17.286Z,9.68
2022-08-05T02:44:06.309Z,8.98
2022-08-05T02:46:44.074Z,14.77
2022-08-05T02:49:26.968Z,17.00
2022-08-05T02:52:04.819Z,12.45
2022-08-05T02:54:36.189Z,12.02
2022-08-05T02:57:10.117Z,10.60
2022-08-05T02:59:54.206Z,8.00
2022-08-05T03:02:27.440Z,6.90
2022-08-05T03:04:55.573Z,7.53
2022-08-05T03:07:40.920Z,7.47
2022-08-05T03:10:10.378Z,9.45
2022-08-05T03:12:40.106Z,9.57
2022-08-05T03:15:09.643Z,9.02
2022-08-05T03:17:41.913Z,10.35
2022-08-05T03:20:12.041Z,10.50
2022-08-05T03:22:46.856Z,9.23
2022-08-05T03:25:33.904Z,11.15
2022-08-05T03:28:09.768Z,8.63
2022-08-05T03:33:06.211Z,10.05
2022-08-05T03:35:40.563Z,10.20
2022-08-05T03:38:10.606Z,9.13
2022-08-05T03:40:40.400Z,7.78
2022-08-05T03:43:58.421Z,7.07
2022-08-05T03:45:58.098Z,8.15
2022-08-05T03:48:29.510Z,7.57
2022-08-05T03:55:52.581Z,10.43
2022-08-05T03:57:01.862Z,9.27
2022-08-05T04:02:38.344Z,7.22
2022-08-05T04:07:57.995Z,7.70
2022-08-05T04:10:33.352Z,7.93
2022-08-05T04:13:04.586Z,8.35
2022-08-05T04:15:33.371Z,7.15
2022-08-05T04:18:07.073Z,7.22
2022-08-05T04:20:34.485Z,9.98
2022-08-05T04:23:01.413Z,7.40
2022-08-05T04:25:56.912Z,8.57
2022-08-05T04:28:17.250Z,9.35
2022-08-05T04:30:44.308Z,10.50
2022-08-05T04:33:12.523Z,7.57
2022-08-05T04:36:11.291Z,7.28
2022-08-05T04:38:39.281Z,8.60
2022-08-05T04:41:07.264Z,9.50
2022-08-05T04:43:34.365Z,10.35
2022-08-05T04:46:04.555Z,9.68
2022-08-05T04:48:32.003Z,10.02
2022-08-05T04:51:03.774Z,9.10
2022-08-05T04:53:38.676Z,9.63
2022-08-05T04:56:32.275Z,8.75
2022-08-05T04:58:53.408Z,9.48
2022-08-05T05:02:08.117Z,8.73
2022-08-05T05:04:06.552Z,7.15
2022-08-05T05:06:40.348Z,8.20
2022-08-05T05:09:17.305Z,8.68
2022-08-05T05:11:55.458Z,8.30
2022-08-05T05:14:27.909Z,7.20
2022-08-05T05:17:00.270Z,7.10
2022-08-05T05:19:36.116Z,7.80
2022-08-05T05:24:56.758Z,12.15
2022-08-05T05:27:24.942Z,8.10
2022-08-05T05:30:09.119Z,8.98
2022-08-05T05:32:55.244Z,7.75
2022-08-05T05:35:22.805Z,7.20
2022-08-05T05:38:00.088Z,7.82
2022-08-05T05:40:28.460Z,9.85
2022-08-05T05:42:56.311Z,10.80
2022-08-05T05:45:24.670Z,9.68
2022-08-05T05:48:07.108Z,8.77
2022-08-05T05:50:44.076Z,10.00
2022-08-05T05:53:21.637Z,14.63
2022-08-05T05:55:52.111Z,11.15
2022-08-05T05:58:31.753Z,8.75
2022-08-05T06:01:12.171Z,8.73
2022-08-05T06:04:01.379Z,7.22
2022-08-05T06:06:28.051Z,8.30
2022-08-05T06:08:57.934Z,7.70
2022-08-05T06:11:24.602Z,10.20
2022-08-05T06:13:55.320Z,6.47
2022-08-05T06:16:29.918Z,7.50
2022-08-05T06:19:00.929Z,8.85
2022-08-05T06:21:37.268Z,7.28
2022-08-05T06:24:11.365Z,6.90
2022-08-05T06:26:39.099Z,6.65
2022-08-05T06:29:06.968Z,10.00
2022-08-05T06:31:52.495Z,7.72
2022-08-05T06:34:19.889Z,8.70
2022-08-05T06:36:57.702Z,8.75
2022-08-05T06:39:27.174Z,11.13
2022-08-05T06:41:56.214Z,9.82
2022-08-05T06:44:25.270Z,8.18
2022-08-05T06:46:52.566Z,10.20
2022-08-05T06:49:21.477Z,9.65
2022-08-05T06:52:07.546Z,7.45
2022-08-05T06:54:54.024Z,7.40
2022-08-05T06:58:03.916Z,7.95
2022-08-05T07:00:09.669Z,6.95
2022-08-05T07:02:53.738Z,6.43
2022-08-05T07:05:24.632Z,5.88
2022-08-05T07:08:04.280Z,8.80
2022-08-05T07:10:32.458Z,5.82
2022-08-05T07:13:56.815Z,8.20
2022-08-05T07:17:57.208Z,6.85
2022-08-05T07:19:10.823Z,8.20
2022-08-05T07:22:01.016Z,10.15
2022-08-05T07:24:28.715Z,8.02
2022-08-05T07:26:56.962Z,8.57
2022-08-05T07:30:22.349Z,10.48
2022-08-05T07:32:12.366Z,8.55
2022-08-05T07:34:42.408Z,7.10
2022-08-05T07:37:11.538Z,8.27
2022-08-05T07:40:26.293Z,6.70
2022-08-05T07:42:33.790Z,11.32
2022-08-05T07:45:03.715Z,7.28
2022-08-05T07:47:42.540Z,10.18
2022-08-05T07:50:11.871Z,8.65
2022-08-05T07:52:46.722Z,8.27
2022-08-05T07:55:43.855Z,7.95
2022-08-05T07:58:03.078Z,7.18
2022-08-05T08:00:30.568Z,6.85
2022-08-05T08:03:13.589Z,9.52
2022-08-05T08:05:49.388Z,6.75
2022-08-05T08:08:19.788Z,8.50
2022-08-05T08:10:48.949Z,7.97
2022-08-05T08:13:21.848Z,8.57
2022-08-05T08:16:35.578Z,8.48
2022-08-05T08:18:42.514Z,10.95
2022-08-05T08:21:17.726Z,10.38
2022-08-05T08:24:01.354Z,7.68
2022-08-05T08:26:31.337Z,8.27
2022-08-05T08:29:21.796Z,7.38
2022-08-05T08:34:15.797Z,9.75
2022-08-05T08:36:48.827Z,7.53
2022-08-05T08:39:23.382Z,6.68
2022-08-05T08:41:59.934Z,8.32
2022-08-05T08:45:23.264Z,8.25
2022-08-05T08:48:05.677Z,7.55
2022-08-05T08:50:30.488Z,6.47
2022-08-05T08:53:03.410Z,10.82
2022-08-05T08:56:03.421Z,7.75
2022-08-05T08:58:43.998Z,6.88
2022-08-05T09:01:16.301Z,7.25
2022-08-05T09:03:46.158Z,7.10
2022-08-05T09:06:18.509Z,7.82
2022-08-05T09:08:46.609Z,8.20
2022-08-05T09:11:14.780Z,7.13
2022-08-05T09:14:01.039Z,6.53
2022-08-05T09:16:29.672Z,8.82
2022-08-05T09:18:56.171Z,9.50
2022-08-05T09:22:17.761Z,7.47
2022-08-05T09:24:15.520Z,7.40
2022-08-05T09:26:43.739Z,10.73
2022-08-05T09:29:10.744Z,6.80
2022-08-05T09:32:41.660Z,10.15
2022-08-05T09:34:53.105Z,11.30
2022-08-05T09:38:16.723Z,7.85
2022-08-05T09:40:08.259Z,10.93
2022-08-05T09:42:41.213Z,7.40
2022-08-05T09:45:17.946Z,6.82
2022-08-05T09:47:57.471Z,9.05
2022-08-05T09:50:38.914Z,6.82
2022-08-05T09:53:23.125Z,9.25
2022-08-05T09:56:04.500Z,6.50
2022-08-05T09:58:42.082Z,9.38
2022-08-05T10:01:15.072Z,8.70
2022-08-05T10:04:00.138Z,9.00
2022-08-05T10:06:27.920Z,7.07
2022-08-05T10:08:55.588Z,9.95
2022-08-05T10:11:22.808Z,8.18
2022-08-05T10:13:49.541Z,8.27
2022-08-05T10:16:34.290Z,8.80
2022-08-05T10:19:10.204Z,8.13
2022-08-05T10:21:40.265Z,7.93
2022-08-05T10:24:11.013Z,8.60
2022-08-05T10:26:51.406Z,9.27
2022-08-05T10:29:23.562Z,7.47
2022-08-05T10:32:54.509Z,10.40
2022-08-05T10:34:55.404Z,7.78
2022-08-05T10:37:22.323Z,8.00
2022-08-05T10:39:58.926Z,7.30
2022-08-05T10:45:23.861Z,6.82
2022-08-05T10:48:30.115Z,7.85
2022-08-05T10:51:04.525Z,6.47
2022-08-05T10:53:55.629Z,7.35
2022-08-05T10:56:28.186Z,8.15
2022-08-05T10:58:55.399Z,6.32
2022-08-05T11:02:03.696Z,6.15
2022-08-05T11:04:22.651Z,5.75
2022-08-05T11:07:04.381Z,5.78
2022-08-05T11:09:45.291Z,7.97
2022-08-05T11:12:45.396Z,7.53
2022-08-05T11:15:24.308Z,6.78
2022-08-05T11:18:32.467Z,7.00
2022-08-05T11:21:00.131Z,6.97
2022-08-05T11:24:05.129Z,6.07
2022-08-05T11:26:43.297Z,5.45
2022-08-05T11:29:42.723Z,7.53
2022-08-05T11:32:35.227Z,7.07
2022-08-05T11:35:02.354Z,6.40
2022-08-05T11:38:29.692Z,7.07
2022-08-05T11:41:03.633Z,7.05
2022-08-05T11:44:04.339Z,8.48
2022-08-05T11:46:36.469Z,6.03
2022-08-05T11:49:05.827Z,5.60
2022-08-05T11:51:44.487Z,5.82
2022-08-05T11:54:43.537Z,5.97
2022-08-05T11:58:08.363Z,7.35
2022-08-05T12:00:01.629Z,6.18
2022-08-05T12:02:33.073Z,6.55
2022-08-05T12:05:18.069Z,7.72
2022-08-05T12:08:03.226Z,7.25
2022-08-05T12:10:43.110Z,6.18
2022-08-05T12:13:15.578Z,6.35
2022-08-05T12:15:45.312Z,5.00
2022-08-05T12:18:20.561Z,5.03
2022-08-05T12:20:47.378Z,6.05
2022-08-05T12:23:14.350Z,5.80
2022-08-05T12:25:52.516Z,5.50
2022-08-05T12:28:37.161Z,6.03
2022-08-05T12:31:04.842Z,7.05
2022-08-05T12:33:37.000Z,5.20
2022-08-05T12:36:08.619Z,7.05
2022-08-05T12:41:13.223Z,4.88
2022-08-05T12:44:11.659Z,6.82
2022-08-05T12:46:45.651Z,4.90
2022-08-05T12:49:19.120Z,5.43
2022-08-05T12:52:12.037Z,5.90
2022-08-05T12:54:40.891Z,7.45
2022-08-05T12:57:18.180Z,5.63
2022-08-05T13:02:37.470Z,6.03
2022-08-05T13:05:07.202Z,5.13
2022-08-05T13:08:00.030Z,6.28
2022-08-05T13:10:20.663Z,7.65
2022-08-05T13:12:50.992Z,6.30
2022-08-05T13:15:50.201Z,6.03
2022-08-05T13:18:18.870Z,6.55
2022-08-05T13:20:49.298Z,6.75
2022-08-05T13:23:16.362Z,8.15
2022-08-05T13:25:52.701Z,6.68
2022-08-05T13:28:26.597Z,7.75
2022-08-05T13:30:55.584Z,6.68
2022-08-05T13:34:25.160Z,6.90
2022-08-05T13:36:11.211Z,7.25
2022-08-05T13:38:42.819Z,5.88
2022-08-05T13:41:11.177Z,7.13
2022-08-05T13:43:44.189Z,6.35
2022-08-05T13:46:43.778Z,6.15
2022-08-05T13:49:10.564Z,6.65
2022-08-05T13:51:40.860Z,5.97
2022-08-05T13:54:12.798Z,6.85
2022-08-05T13:56:50.385Z,6.45
2022-08-05T13:59:21.092Z,6.90
2022-08-05T14:01:56.585Z,6.72
2022-08-05T14:04:52.722Z,6.47
2022-08-05T14:07:25.874Z,8.13
2022-08-05T14:10:28.050Z,6.93
2022-08-05T14:12:57.440Z,6.53
2022-08-05T14:16:07.675Z,6.28
2022-08-05T14:18:14.758Z,5.57
2022-08-05T14:20:46.855Z,6.38
2022-08-05T14:23:14.753Z,6.38
2022-08-05T14:25:54.220Z,7.00
2022-08-05T14:28:26.263Z,7.38
2022-08-05T14:30:54.119Z,6.03
2022-08-05T14:33:22.577Z,8.18
2022-08-05T14:35:51.749Z,6.50
2022-08-05T14:38:32.760Z,6.07
2022-08-05T14:41:06.479Z,5.90
2022-08-05T14:44:01.998Z,6.55
2022-08-05T14:46:28.698Z,8.77
2022-08-05T14:49:06.225Z,6.45
2022-08-05T14:51:35.502Z,8.68
2022-08-05T14:54:25.891Z,7.07
2022-08-05T14:56:48.778Z,7.28
2022-08-05T14:59:18.297Z,6.65
2022-08-05T15:04:17.328Z,7.35
2022-08-05T15:06:49.224Z,7.25
2022-08-05T15:09:16.819Z,7.43
2022-08-05T15:12:04.010Z,6.35
2022-08-05T15:14:34.980Z,7.78
2022-08-05T15:17:44.774Z,6.70
2022-08-05T15:19:56.332Z,8.00
2022-08-05T15:22:26.928Z,6.53
2022-08-05T15:24:55.022Z,9.40
2022-08-05T15:27:21.485Z,8.68
2022-08-05T15:29:51.860Z,8.77
2022-08-05T15:32:20.860Z,8.13
2022-08-05T15:34:55.281Z,11.18
2022-08-05T15:38:32.266Z,7.88
2022-08-05T15:41:03.179Z,7.25
2022-08-05T15:43:02.539Z,8.27
2022-08-05T15:45:43.851Z,7.90
2022-08-05T15:48:14.320Z,7.35
2022-08-05T15:50:41.617Z,9.00
2022-08-05T15:53:10.776Z,10.40
2022-08-05T15:56:01.884Z,8.27
2022-08-05T15:58:26.353Z,9.13
2022-08-05T16:01:04.274Z,6.95
2022-08-05T16:03:43.430Z,10.00
2022-08-05T16:06:11.423Z,7.60
2022-08-05T16:08:38.518Z,7.45
2022-08-05T16:11:05.153Z,8.10
2022-08-05T16:13:34.723Z,10.63
2022-08-05T16:16:03.352Z,9.75
2022-08-05T16:18:30.679Z,10.02
2022-08-05T16:20:57.378Z,11.10
2022-08-05T16:23:24.197Z,8.63
2022-08-05T16:25:53.310Z,7.30
2022-08-05T16:28:24.285Z,9.07
2022-08-05T16:30:52.058Z,9.77
2022-08-05T16:33:19.355Z,7.55
2022-08-05T16:35:49.902Z,8.50
2022-08-05T16:38:25.040Z,8.20
2022-08-05T16:40:59.834Z,6.75
2022-08-05T16:43:29.259Z,7.10
2022-08-05T16:46:04.345Z,6.45
2022-08-05T16:48:36.044Z,7.05
2022-08-05T16:51:09.311Z,5.90
2022-08-05T16:54:06.018Z,10.32
2022-08-05T16:56:24.953Z,5.10
2022-08-05T16:58:51.648Z,5.20
2022-08-05T17:01:18.729Z,5.43
2022-08-05T17:03:45.695Z,4.05
2022-08-05T17:06:12.334Z,4.82
2022-08-05T17:08:52.461Z,2.55
2022-08-05T17:11:23.809Z,1.73
2022-08-05T17:14:00.558Z,1.52
2022-08-05T17:16:36.146Z,1.50
2022-08-05T17:19:07.737Z,3.25
2022-08-05T17:21:37.332Z,1.85
2022-08-05T17:24:19.569Z,3.30
2022-08-05T17:26:56.374Z,9.07
2022-08-05T17:29:34.005Z,8.18
2022-08-05T17:32:07.059Z,6.95
2022-08-05T17:34:35.052Z,6.80
2022-08-05T17:37:01.608Z,5.35
2022-08-05T17:39:29.832Z,4.05
2022-08-05T17:42:17.541Z,6.13
2022-08-05T17:44:50.857Z,3.83
2022-08-05T17:47:18.717Z,3.95
2022-08-05T17:49:59.823Z,7.85
2022-08-05T17:52:34.350Z,5.50
2022-08-05T17:55:01.340Z,6.20
2022-08-05T17:57:29.625Z,4.20
2022-08-05T18:00:05.471Z,5.25
2022-08-05T18:02:33.221Z,6.38
2022-08-05T18:05:02.953Z,3.95
2022-08-05T18:07:41.571Z,6.40
2022-08-05T18:10:10.924Z,4.38
2022-08-05T18:12:38.043Z,3.80
2022-08-05T18:15:05.065Z,3.00
2022-08-05T18:18:00.709Z,3.30
2022-08-05T18:20:19.343Z,2.83
2022-08-05T18:22:57.543Z,3.53
2022-08-05T18:25:25.142Z,4.80
2022-08-05T18:27:52.798Z,2.72
2022-08-05T18:30:19.616Z,3.17
2022-08-05T18:32:53.487Z,4.53
2022-08-05T18:35:49.397Z,4.10
2022-08-05T18:38:13.186Z,2.85
2022-08-05T18:41:56.681Z,4.40
2022-08-05T18:43:31.536Z,4.47
2022-08-05T18:46:06.730Z,5.30
2022-08-05T18:48:36.685Z,5.30
2022-08-05T18:52:05.153Z,3.38
2022-08-05T18:54:14.033Z,2.63
2022-08-05T18:56:40.510Z,5.22
2022-08-05T18:59:44.173Z,4.70
2022-08-05T19:01:57.291Z,3.40
2022-08-05T19:04:25.308Z,3.80
2022-08-05T19:06:51.950Z,3.22
2022-08-05T19:09:20.539Z,4.13
2022-08-05T19:11:59.459Z,4.47
2022-08-05T19:14:53.341Z,3.95
2022-08-05T19:17:15.820Z,3.20
2022-08-05T19:19:47.041Z,5.85
2022-08-05T19:22:22.206Z,6.45
2022-08-05T19:24:55.926Z,4.63
2022-08-05T19:27:23.580Z,4.45
2022-08-05T19:29:51.771Z,7.82
2022-08-05T19:32:18.439Z,5.40
2022-08-05T19:34:55.021Z,3.80
2022-08-05T19:37:35.170Z,3.72
2022-08-05T19:40:10.816Z,4.53
2022-08-05T19:42:38.877Z,4.22
2022-08-05T19:45:07.136Z,3.00
2022-08-05T19:47:37.701Z,4.63
2022-08-05T19:50:06.211Z,4.47
2022-08-05T19:52:34.553Z,5.53
2022-08-05T19:55:07.228Z,4.93
2022-08-05T19:58:06.713Z,5.88
2022-08-05T20:00:35.561Z,5.15
2022-08-05T20:03:08.767Z,4.10
2022-08-05T20:05:43.324Z,4.53
2022-08-05T20:08:17.108Z,4.82
2022-08-05T20:10:43.675Z,4.15
2022-08-05T20:13:10.983Z,4.28
2022-08-05T20:15:51.538Z,5.72
2022-08-05T20:18:35.765Z,4.75
2022-08-05T20:21:05.177Z,5.40
2022-08-05T20:23:39.358Z,4.97
2022-08-05T20:26:18.759Z,5.72
2022-08-05T20:28:48.670Z,6.57
2022-08-05T20:31:16.647Z,4.38
2022-08-05T20:33:43.861Z,5.07
2022-08-05T20:36:11.401Z,5.97
2022-08-05T20:38:38.218Z,4.97
2022-08-05T20:41:26.681Z,5.05
2022-08-05T20:43:59.132Z,4.50
2022-08-05T20:46:27.030Z,6.57
2022-08-05T20:48:53.628Z,5.25
2022-08-05T20:51:21.468Z,5.00
2022-08-05T20:53:56.359Z,6.25
2022-08-05T20:56:28.842Z,4.88
2022-08-05T20:59:04.237Z,5.10
2022-08-05T21:01:41.359Z,5.50
2022-08-05T21:04:11.523Z,6.97
2022-08-05T21:06:45.345Z,4.78
2022-08-05T21:09:14.345Z,5.43
2022-08-05T21:12:09.426Z,6.07
2022-08-05T21:14:29.271Z,7.13
2022-08-05T21:17:01.595Z,9.52
2022-08-05T21:19:29.669Z,6.03
2022-08-05T21:22:14.463Z,6.05
2022-08-05T21:24:41.127Z,5.70
2022-08-05T21:27:09.184Z,6.32
2022-08-05T21:29:40.698Z,5.65
2022-08-05T21:32:07.504Z,5.20
2022-08-05T21:34:35.680Z,7.60
2022-08-05T21:37:02.464Z,5.45
2022-08-05T21:39:29.410Z,6.00
2022-08-05T21:42:02.061Z,6.25
2022-08-05T21:44:30.096Z,7.22
2022-08-05T21:46:58.215Z,5.90
2022-08-05T21:50:00.130Z,8.70
2022-08-05T21:52:16.353Z,6.82
2022-08-05T21:54:51.225Z,7.85
2022-08-05T21:57:31.435Z,5.38
2022-08-05T22:00:10.956Z,6.07
2022-08-05T22:02:38.358Z,6.15
2022-08-05T22:05:06.190Z,7.30
2022-08-05T22:07:40.352Z,7.82
2022-08-05T22:10:26.735Z,5.40
2022-08-05T22:16:01.211Z,8.30
2022-08-05T22:18:09.753Z,7.07
2022-08-05T22:20:39.129Z,6.47
2022-08-05T22:24:00.935Z,10.55
2022-08-05T22:26:30.833Z,6.55
2022-08-05T22:28:57.385Z,6.32
2022-08-05T22:31:25.066Z,7.10
2022-08-05T22:34:01.531Z,7.70
2022-08-05T22:36:29.158Z,6.68
2022-08-05T22:38:56.348Z,6.45
2022-08-05T22:42:05.522Z,7.55
2022-08-05T22:44:10.223Z,7.00
2022-08-05T22:46:40.018Z,6.95
2022-08-05T22:49:23.235Z,9.25
2022-08-05T22:52:05.414Z,6.22
2022-08-05T22:54:35.234Z,8.80
2022-08-05T22:57:02.804Z,6.55
2022-08-05T22:59:45.755Z,8.85
2022-08-05T23:02:17.893Z,6.78
2022-08-05T23:04:51.973Z,7.20
2022-08-05T23:07:21.838Z,5.20
2022-08-05T23:09:58.377Z,5.47
2022-08-05T23:12:32.445Z,3.90
2022-08-05T23:15:09.395Z,6.40
2022-08-05T23:18:02.347Z,6.50
2022-08-05T23:20:25.196Z,5.80
2022-08-05T23:22:55.629Z,5.85
2022-08-05T23:25:53.411Z,4.95
2022-08-05T23:28:09.977Z,4.60
2022-08-05T23:30:40.604Z,6.22
2022-08-05T23:33:22.215Z,5.18
2022-08-05T23:35:55.840Z,6.00
2022-08-05T23:38:24.241Z,3.90
2022-08-05T23:40:52.870Z,4.00
2022-08-05T23:43:25.159Z,3.22
2022-08-05T23:46:05.228Z,4.28
2022-08-05T23:48:59.964Z,5.32
2022-08-05T23:51:53.414Z,4.85
2022-08-05T23:54:36.281Z,5.75
2022-08-05T23:57:04.714Z,2.20
